createdAt,value
2022-09-28T00:01:14.545Z,9.77
2022-09-28T00:03:41.367Z,7.90
2022-09-28T00:06:10.932Z,10.63
2022-09-28T00:08:37.721Z,9.90
2022-09-28T00:11:06.336Z,8.18
2022-09-28T00:13:33.406Z,10.07
2022-09-28T00:16:00.079Z,9.63
2022-09-28T00:18:26.909Z,14.65
2022-09-28T00:21:14.797Z,11.07
2022-09-28T00:24:00.906Z,10.93
2022-09-28T00:26:32.075Z,11.15
2022-09-28T00:29:01.090Z,10.60
2022-09-28T00:31:31.682Z,13.85
2022-09-28T00:34:00.371Z,21.15
2022-09-28T00:36:29.311Z,14.38
2022-09-28T00:38:56.823Z,15.93
2022-09-28T00:41:25.268Z,20.77
2022-09-28T00:43:52.499Z,22.33
2022-09-28T00:46:32.425Z,21.90
2022-09-28T00:49:03.518Z,22.67
2022-09-28T00:51:32.184Z,25.23
2022-09-28T00:54:01.063Z,27.30
2022-09-28T00:56:30.767Z,29.65
2022-09-28T00:58:59.563Z,30.45
2022-09-28T01:01:27.724Z,24.20
2022-09-28T01:03:54.782Z,32.05
2022-09-28T01:06:23.245Z,28.60
2022-09-28T01:08:51.863Z,32.13
2022-09-28T01:11:19.608Z,29.08
2022-09-28T01:13:48.061Z,27.02
2022-09-28T01:16:35.828Z,25.52
2022-09-28T01:19:52.800Z,28.40
2022-09-28T01:22:32.022Z,25.67
2022-09-28T01:25:05.114Z,25.80
2022-09-28T01:27:40.866Z,34.45
2022-09-28T01:30:21.655Z,26.33
2022-09-28T01:33:00.551Z,24.90
2022-09-28T01:35:35.578Z,23.75
2022-09-28T01:38:13.398Z,24.63
2022-09-28T01:40:40.833Z,24.25
2022-09-28T01:43:15.292Z,27.45
2022-09-28T01:45:49.045Z,23.00
2022-09-28T01:48:24.041Z,22.65
2022-09-28T01:50:53.959Z,27.15
2022-09-28T01:53:36.500Z,23.58
2022-09-28T01:56:29.022Z,22.65
2022-09-28T01:59:12.950Z,20.00
2022-09-28T02:01:44.410Z,18.88
2022-09-28T02:04:21.047Z,18.50
2022-09-28T02:07:19.547Z,19.27
2022-09-28T02:09:49.620Z,19.42
2022-09-28T02:12:22.608Z,14.50
2022-09-28T02:14:49.711Z,18.80
2022-09-28T02:17:16.644Z,18.80
2022-09-28T02:19:47.111Z,17.67
2022-09-28T02:22:24.428Z,21.58
2022-09-28T02:25:31.189Z,23.80
2022-09-28T02:27:59.474Z,17.45
2022-09-28T02:30:27.396Z,17.38
2022-09-28T02:32:58.128Z,19.85
2022-09-28T02:35:24.845Z,16.23
2022-09-28T02:37:51.755Z,16.25
2022-09-28T02:40:21.760Z,20.60
2022-09-28T02:43:31.770Z,19.83
2022-09-28T02:46:29.538Z,16.38
2022-09-28T02:49:28.090Z,17.88
2022-09-28T02:52:03.579Z,20.52
2022-09-28T02:54:33.122Z,16.95
2022-09-28T02:57:24.974Z,21.95
2022-09-28T03:00:12.446Z,19.27
2022-09-28T03:02:42.899Z,16.83
2022-09-28T03:05:20.920Z,18.17
2022-09-28T03:07:58.942Z,20.48
2022-09-28T03:10:39.219Z,20.25
2022-09-28T03:13:06.198Z,22.63
2022-09-28T03:15:35.251Z,16.55
2022-09-28T03:18:02.576Z,19.58
2022-09-28T03:20:30.479Z,21.27
2022-09-28T03:23:20.122Z,18.25
2022-09-28T03:25:44.199Z,21.63
2022-09-28T03:28:10.830Z,20.40
2022-09-28T03:30:40.191Z,21.27
2022-09-28T03:33:07.208Z,28.08
2022-09-28T03:35:34.573Z,26.30
2022-09-28T03:38:01.362Z,22.40
2022-09-28T03:40:30.361Z,21.45
2022-09-28T03:42:57.067Z,17.88
2022-09-28T03:45:23.656Z,25.20
2022-09-28T03:47:51.848Z,21.65
2022-09-28T03:50:18.968Z,21.00
2022-09-28T03:52:45.702Z,24.40
2022-09-28T03:55:12.674Z,20.80
2022-09-28T03:57:39.369Z,21.17
2022-09-28T04:00:06.942Z,25.83
2022-09-28T04:02:40.415Z,21.88
2022-09-28T04:05:07.675Z,24.10
2022-09-28T04:07:34.411Z,21.35
2022-09-28T04:10:01.188Z,20.38
2022-09-28T04:12:28.032Z,21.67
2022-09-28T04:14:54.733Z,23.27
2022-09-28T04:17:21.401Z,22.65
2022-09-28T04:19:48.402Z,24.20
2022-09-28T04:22:25.281Z,22.80
2022-09-28T04:24:52.188Z,22.75
2022-09-28T04:27:37.430Z,25.20
2022-09-28T04:30:04.759Z,25.85
2022-09-28T04:32:33.519Z,25.88
2022-09-28T04:35:00.452Z,29.88
2022-09-28T04:37:27.125Z,29.77
2022-09-28T04:39:53.761Z,34.30
2022-09-28T04:42:20.631Z,28.23
2022-09-28T04:44:49.382Z,29.58
2022-09-28T04:47:16.726Z,31.08
2022-09-28T04:50:10.928Z,29.90
2022-09-28T04:52:57.677Z,24.63
2022-09-28T04:55:24.350Z,29.65
2022-09-28T04:57:51.011Z,28.73
2022-09-28T05:00:17.758Z,28.38
2022-09-28T05:02:57.530Z,29.13
2022-09-28T05:05:47.831Z,23.92
2022-09-28T05:08:30.805Z,24.50
2022-09-28T05:11:01.946Z,29.17
2022-09-28T05:13:29.311Z,28.85
2022-09-28T05:16:01.782Z,30.15
2022-09-28T05:18:32.719Z,28.20
2022-09-28T05:21:04.567Z,26.92
2022-09-28T05:23:31.378Z,32.10
2022-09-28T05:26:01.907Z,26.60
2022-09-28T05:28:31.531Z,36.03
2022-09-28T05:31:17.001Z,25.83
2022-09-28T05:34:09.710Z,27.90
2022-09-28T05:36:37.095Z,23.13
2022-09-28T05:39:04.143Z,31.50
2022-09-28T05:41:32.012Z,34.38
2022-09-28T05:44:00.128Z,30.33
2022-09-28T05:46:26.887Z,34.33
2022-09-28T05:48:54.525Z,26.90
2022-09-28T05:51:21.279Z,27.55
2022-09-28T05:53:48.132Z,28.13
2022-09-28T05:56:17.412Z,26.98
2022-09-28T05:58:48.372Z,30.95
2022-09-28T06:01:17.661Z,29.73
2022-09-28T06:03:45.239Z,27.17
2022-09-28T06:06:11.925Z,31.38
2022-09-28T06:08:43.285Z,29.58
2022-09-28T06:11:45.452Z,31.85
2022-09-28T06:14:21.715Z,32.38
2022-09-28T06:16:48.501Z,26.33
2022-09-28T06:19:17.058Z,31.60
2022-09-28T06:21:58.409Z,27.52
2022-09-28T06:24:26.178Z,31.95
2022-09-28T06:26:53.043Z,31.80
2022-09-28T06:29:21.229Z,30.38
2022-09-28T06:31:47.878Z,33.42
2022-09-28T06:34:14.951Z,35.03
2022-09-28T06:36:41.736Z,33.08
2022-09-28T06:39:10.094Z,31.63
2022-09-28T06:41:37.875Z,35.53
2022-09-28T06:44:13.885Z,30.40
2022-09-28T06:47:02.758Z,29.98
2022-09-28T06:49:55.383Z,31.15
2022-09-28T06:52:40.950Z,30.80
2022-09-28T06:55:24.748Z,30.38
2022-09-28T06:58:03.338Z,27.50
2022-09-28T07:00:34.070Z,24.42
2022-09-28T07:03:07.285Z,26.90
2022-09-28T07:05:50.487Z,20.77
2022-09-28T07:08:32.367Z,23.45
2022-09-28T07:11:39.652Z,21.05
2022-09-28T07:14:44.314Z,22.33
2022-09-28T07:17:14.042Z,22.73
2022-09-28T07:19:42.356Z,26.67
2022-09-28T07:22:18.159Z,21.98
2022-09-28T07:24:47.022Z,28.67
2022-09-28T07:27:39.574Z,24.73
2022-09-28T07:30:43.375Z,24.80
2022-09-28T07:33:17.913Z,25.50
2022-09-28T07:36:02.923Z,25.67
2022-09-28T07:38:30.291Z,21.77
2022-09-28T07:41:12.601Z,26.50
2022-09-28T07:43:45.915Z,21.05
2022-09-28T07:46:12.857Z,26.83
2022-09-28T07:48:46.073Z,24.60
2022-09-28T07:51:46.158Z,24.38
2022-09-28T07:54:28.735Z,29.63
2022-09-28T07:57:08.674Z,27.27
2022-09-28T08:00:01.955Z,31.70
2022-09-28T08:02:48.967Z,30.23
2022-09-28T08:05:23.795Z,32.30
2022-09-28T08:07:50.739Z,27.42
2022-09-28T08:10:17.993Z,29.10
2022-09-28T08:13:26.995Z,29.77
2022-09-28T08:16:03.216Z,25.73
2022-09-28T08:18:40.442Z,25.38
2022-09-28T08:21:33.512Z,22.73
2022-09-28T08:24:02.041Z,26.60
2022-09-28T08:26:29.439Z,28.15
2022-09-28T08:28:58.505Z,26.58
2022-09-28T08:31:51.312Z,28.52
2022-09-28T08:34:39.889Z,26.25
2022-09-28T08:37:25.381Z,26.67
2022-09-28T08:40:18.461Z,26.15
2022-09-28T08:43:40.616Z,26.33
2022-09-28T08:46:39.788Z,26.75
2022-09-28T08:49:34.879Z,23.50
2022-09-28T08:52:37.236Z,26.17
2022-09-28T08:55:37.510Z,26.30
2022-09-28T08:58:22.941Z,31.88
2022-09-28T09:00:51.709Z,31.48
2022-09-28T09:03:36.015Z,28.73
2022-09-28T09:06:41.016Z,27.15
2022-09-28T09:10:18.201Z,31.10
2022-09-28T09:13:12.345Z,27.27
2022-09-28T09:16:14.637Z,22.33
2022-09-28T09:19:26.496Z,29.00
2022-09-28T09:22:17.880Z,25.65
2022-09-28T09:24:51.393Z,23.20
2022-09-28T09:27:44.699Z,25.88
2022-09-28T09:30:22.076Z,19.67
2022-09-28T09:33:13.877Z,22.42
2022-09-28T09:36:36.211Z,20.70
2022-09-28T09:39:42.060Z,18.00
2022-09-28T09:42:42.548Z,20.83
2022-09-28T09:45:44.156Z,23.48
2022-09-28T09:48:35.673Z,22.27
2022-09-28T09:51:06.819Z,24.33
2022-09-28T09:53:42.277Z,21.30
2022-09-28T09:56:15.465Z,19.30
2022-09-28T09:59:08.448Z,20.67
2022-09-28T10:01:41.048Z,20.90
2022-09-28T10:04:36.926Z,21.15
2022-09-28T10:07:22.602Z,15.50
2022-09-28T10:09:51.816Z,16.05
2022-09-28T10:12:27.532Z,25.23
2022-09-28T10:14:56.042Z,16.90
2022-09-28T10:17:27.408Z,17.80
2022-09-28T10:20:14.129Z,20.15
2022-09-28T10:23:03.394Z,18.48
2022-09-28T10:25:33.557Z,14.23
2022-09-28T10:28:01.254Z,13.07
2022-09-28T10:30:28.556Z,12.15
2022-09-28T10:33:00.920Z,11.00
2022-09-28T10:35:41.478Z,13.25
2022-09-28T10:38:17.866Z,15.77
2022-09-28T10:41:00.980Z,18.08
2022-09-28T10:44:08.654Z,23.10
2022-09-28T10:47:01.905Z,21.27
2022-09-28T10:49:47.572Z,23.58
2022-09-28T10:52:38.936Z,22.67
2022-09-28T10:55:20.952Z,17.77
2022-09-28T10:57:48.248Z,21.25
2022-09-28T11:00:44.733Z,19.45
2022-09-28T11:03:25.510Z,19.10
2022-09-28T11:06:03.039Z,16.20
2022-09-28T11:08:35.573Z,15.52
2022-09-28T11:11:05.251Z,17.27
2022-09-28T11:13:41.505Z,14.43
2022-09-28T11:16:20.152Z,13.93
2022-09-28T11:18:47.263Z,11.13
2022-09-28T11:21:16.973Z,8.35
2022-09-28T11:24:01.473Z,11.82
2022-09-28T11:26:49.856Z,8.50
2022-09-28T11:29:42.355Z,8.77
2022-09-28T11:32:18.528Z,6.50
2022-09-28T11:35:04.266Z,6.25
2022-09-28T11:38:04.609Z,4.93
2022-09-28T11:41:36.825Z,13.20
2022-09-28T11:44:04.229Z,9.50
2022-09-28T11:46:37.185Z,12.95
2022-09-28T11:49:43.741Z,7.10
2022-09-28T11:52:40.673Z,6.93
2022-09-28T11:55:19.371Z,8.98
2022-09-28T11:57:50.721Z,11.05
2022-09-28T12:00:25.229Z,8.55
2022-09-28T12:03:06.528Z,8.68
2022-09-28T12:05:34.326Z,8.45
2022-09-28T12:08:27.799Z,11.90
2022-09-28T12:11:12.810Z,8.68
2022-09-28T12:14:00.842Z,7.40
2022-09-28T12:17:12.439Z,6.75
2022-09-28T12:20:33.665Z,8.80
2022-09-28T12:23:05.070Z,16.60
2022-09-28T12:25:40.832Z,5.88
2022-09-28T12:28:32.263Z,6.00
2022-09-28T12:31:03.787Z,6.93
2022-09-28T12:33:30.520Z,6.57
2022-09-28T12:36:19.680Z,6.47
2022-09-28T12:39:35.460Z,4.65
2022-09-28T12:42:37.000Z,6.72
2022-09-28T12:45:20.419Z,5.65
2022-09-28T12:48:14.716Z,3.53
2022-09-28T12:50:58.093Z,4.45
2022-09-28T12:53:25.959Z,4.95
2022-09-28T12:56:34.627Z,17.10
2022-09-28T12:59:18.845Z,5.63
2022-09-28T13:01:54.772Z,6.00
2022-09-28T13:04:44.372Z,5.97
2022-09-28T13:07:49.059Z,6.55
2022-09-28T13:10:32.617Z,6.00
2022-09-28T13:13:29.723Z,6.15
2022-09-28T13:16:02.489Z,5.32
2022-09-28T13:18:42.167Z,5.68
2022-09-28T13:21:32.096Z,5.82
2022-09-28T13:24:20.689Z,6.85
2022-09-28T13:26:48.815Z,9.30
2022-09-28T13:29:20.214Z,6.88
2022-09-28T13:31:52.727Z,6.47
2022-09-28T13:34:22.676Z,9.45
2022-09-28T13:37:20.247Z,6.95
2022-09-28T13:39:52.034Z,8.45
2022-09-28T13:42:33.485Z,7.65
2022-09-28T13:45:11.787Z,7.68
2022-09-28T13:47:56.713Z,7.38
2022-09-28T13:50:35.377Z,9.85
2022-09-28T13:53:16.369Z,12.52
2022-09-28T13:55:58.480Z,8.43
2022-09-28T13:58:30.811Z,5.47
2022-09-28T14:01:11.926Z,5.55
2022-09-28T14:03:57.770Z,6.90
2022-09-28T14:06:29.928Z,9.43
2022-09-28T14:09:21.874Z,6.50
2022-09-28T14:12:05.264Z,6.10
2022-09-28T14:14:50.602Z,6.03
2022-09-28T14:17:27.358Z,4.72
2022-09-28T14:20:03.484Z,6.57
2022-09-28T14:23:02.557Z,5.63
2022-09-28T14:25:42.789Z,7.05
2022-09-28T14:28:43.352Z,6.07
2022-09-28T14:31:17.577Z,8.38
2022-09-28T14:34:18.959Z,5.30
2022-09-28T14:37:07.377Z,5.35
2022-09-28T14:39:55.448Z,6.47
2022-09-28T14:42:44.240Z,7.53
2022-09-28T14:45:10.815Z,6.78
2022-09-28T14:47:38.691Z,10.10
2022-09-28T14:50:38.183Z,14.02
2022-09-28T14:56:12.890Z,9.60
2022-09-28T14:58:45.431Z,16.02
2022-09-28T15:01:22.962Z,11.32
2022-09-28T15:03:56.308Z,9.05
2022-09-28T15:06:24.858Z,9.57
2022-09-28T15:08:51.605Z,6.32
2022-09-28T15:11:21.218Z,49.03
2022-09-28T15:14:06.454Z,12.73
2022-09-28T15:16:39.693Z,7.05
2022-09-28T15:19:18.758Z,8.63
2022-09-28T15:21:48.176Z,13.77
2022-09-28T15:25:01.405Z,11.65
2022-09-28T15:27:37.397Z,11.32
2022-09-28T15:30:28.552Z,7.93
2022-09-28T15:32:57.232Z,6.18
2022-09-28T15:35:26.446Z,7.50
2022-09-28T15:37:55.061Z,8.65
2022-09-28T15:40:32.475Z,7.18
2022-09-28T15:42:59.698Z,7.90
2022-09-28T15:45:35.849Z,7.97
2022-09-28T15:48:31.085Z,9.07
2022-09-28T15:51:03.383Z,7.72
2022-09-28T15:53:31.384Z,8.70
2022-09-28T15:56:09.502Z,10.75
2022-09-28T15:58:37.858Z,12.93
2022-09-28T16:01:37.162Z,12.98
2022-09-28T16:04:36.464Z,10.43
2022-09-28T16:07:21.444Z,9.68
2022-09-28T16:10:13.716Z,11.35
2022-09-28T16:12:42.165Z,11.13
2022-09-28T16:15:28.695Z,13.57
2022-09-28T16:17:58.319Z,11.40
2022-09-28T16:20:36.562Z,13.23
2022-09-28T16:23:26.361Z,12.85
2022-09-28T16:26:05.948Z,21.60
2022-09-28T16:28:38.888Z,22.77
2022-09-28T16:31:29.021Z,18.15
2022-09-28T16:34:16.432Z,27.88
2022-09-28T16:36:45.563Z,26.15
2022-09-28T16:39:16.668Z,27.15
2022-09-28T16:41:47.450Z,19.90
2022-09-28T16:44:20.654Z,13.82
2022-09-28T16:46:48.027Z,10.80
2022-09-28T16:49:19.611Z,12.70
2022-09-28T16:51:49.104Z,9.00
2022-09-28T16:54:42.530Z,8.02
2022-09-28T16:57:20.452Z,7.18
2022-09-28T16:59:51.637Z,11.27
2022-09-28T17:02:45.769Z,9.57
2022-09-28T17:05:10.346Z,8.45
2022-09-28T17:07:37.135Z,6.55
2022-09-28T17:10:14.087Z,9.05
2022-09-28T17:12:41.781Z,6.55
2022-09-28T17:15:08.787Z,10.85
2022-09-28T17:17:35.478Z,6.78
2022-09-28T17:20:28.623Z,5.60
2022-09-28T17:23:04.605Z,7.20
2022-09-28T17:25:40.386Z,7.57
2022-09-28T17:28:17.578Z,7.10
2022-09-28T17:30:44.278Z,10.68
2022-09-28T17:33:12.557Z,7.78
2022-09-28T17:35:41.300Z,10.05
2022-09-28T17:38:11.741Z,12.90
2022-09-28T17:40:38.755Z,8.32
2022-09-28T17:43:07.907Z,14.07
2022-09-28T17:45:41.965Z,18.70
2022-09-28T17:48:15.760Z,11.18
2022-09-28T17:50:46.469Z,8.90
2022-09-28T17:53:13.934Z,9.60
2022-09-28T17:55:43.770Z,8.85
2022-09-28T17:58:23.688Z,10.27
2022-09-28T18:00:51.247Z,10.18
2022-09-28T18:03:42.617Z,9.70
2022-09-28T18:06:21.302Z,6.30
2022-09-28T18:08:48.260Z,8.90
2022-09-28T18:11:17.406Z,7.63
2022-09-28T18:13:46.239Z,7.88
2022-09-28T18:16:13.895Z,7.88
2022-09-28T18:18:41.072Z,6.00
2022-09-28T18:21:09.508Z,8.20
2022-09-28T18:23:42.143Z,13.27
2022-09-28T18:26:16.204Z,10.10
2022-09-28T18:28:42.991Z,9.10
2022-09-28T18:31:11.246Z,10.00
2022-09-28T18:33:39.663Z,10.45
2022-09-28T18:36:07.603Z,10.55
2022-09-28T18:38:36.416Z,8.02
2022-09-28T18:41:10.898Z,7.95
2022-09-28T18:43:37.736Z,7.70
2022-09-28T18:46:12.672Z,5.57
2022-09-28T18:48:40.574Z,7.97
2022-09-28T18:51:11.884Z,8.00
2022-09-28T18:53:46.884Z,5.97
2022-09-28T18:56:17.064Z,9.35
2022-09-28T18:58:50.252Z,7.22
2022-09-28T19:01:35.469Z,11.82
2022-09-28T19:04:15.524Z,11.63
2022-09-28T19:06:48.751Z,10.02
2022-09-28T19:09:22.246Z,12.13
2022-09-28T19:11:52.216Z,13.90
2022-09-28T19:14:19.495Z,11.02
2022-09-28T19:16:46.556Z,11.90
2022-09-28T19:19:17.179Z,10.70
2022-09-28T19:21:46.067Z,9.52
2022-09-28T19:24:18.688Z,12.55
2022-09-28T19:26:46.632Z,9.07
2022-09-28T19:29:14.013Z,8.20
2022-09-28T19:31:41.212Z,8.25
2022-09-28T19:34:11.807Z,10.05
2022-09-28T19:36:40.849Z,7.18
2022-09-28T19:39:08.823Z,8.63
2022-09-28T19:41:44.802Z,8.23
2022-09-28T19:44:15.839Z,9.70
2022-09-28T19:46:49.085Z,18.25
2022-09-28T19:49:19.704Z,22.70
2022-09-28T19:52:11.598Z,15.65
2022-09-28T19:54:36.882Z,9.52
2022-09-28T19:57:07.725Z,13.05
2022-09-28T19:59:38.848Z,9.38
2022-09-28T20:02:07.161Z,10.65
2022-09-28T20:04:34.820Z,10.77
2022-09-28T20:07:02.002Z,14.18
2022-09-28T20:09:29.134Z,14.38
2022-09-28T20:11:55.927Z,15.15
2022-09-28T20:14:24.602Z,18.52
2022-09-28T20:16:53.128Z,19.33
2022-09-28T20:19:22.962Z,12.23
2022-09-28T20:21:50.107Z,16.77
2022-09-28T20:24:17.270Z,13.70
2022-09-28T20:26:44.714Z,12.55
2022-09-28T20:29:14.962Z,14.77
2022-09-28T20:31:42.604Z,14.27
2022-09-28T20:34:10.501Z,11.02
2022-09-28T20:36:37.265Z,10.68
2022-09-28T20:39:04.852Z,11.27
2022-09-28T20:41:36.788Z,14.68
2022-09-28T20:44:05.908Z,11.82
2022-09-28T20:46:35.445Z,16.83
2022-09-28T20:49:02.763Z,14.10
2022-09-28T20:51:29.474Z,18.35
2022-09-28T20:53:58.576Z,18.58
2022-09-28T20:56:30.575Z,18.45
2022-09-28T20:58:57.721Z,20.13
2022-09-28T21:01:26.601Z,19.77
2022-09-28T21:03:55.306Z,17.83
2022-09-28T21:06:24.828Z,17.90
2022-09-28T21:08:59.264Z,17.55
2022-09-28T21:11:27.070Z,15.32
2022-09-28T21:13:56.000Z,19.08
2022-09-28T21:16:22.851Z,15.13
2022-09-28T21:18:49.741Z,17.55
2022-09-28T21:21:18.018Z,16.77
2022-09-28T21:23:45.006Z,16.25
2022-09-28T21:26:14.045Z,12.25
2022-09-28T21:28:40.883Z,14.55
2022-09-28T21:31:11.001Z,11.75
2022-09-28T21:33:37.950Z,13.65
2022-09-28T21:36:07.320Z,13.52
2022-09-28T21:38:34.898Z,13.13
2022-09-28T21:41:02.556Z,10.52
2022-09-28T21:43:31.650Z,11.07
2022-09-28T21:45:58.604Z,9.32
2022-09-28T21:48:27.118Z,16.48
2022-09-28T21:50:56.228Z,8.73
2022-09-28T21:53:27.887Z,12.23
2022-09-28T21:55:55.807Z,17.10
2022-09-28T21:58:26.934Z,9.38
2022-09-28T22:01:03.080Z,13.00
2022-09-28T22:03:30.977Z,14.93
2022-09-28T22:05:58.435Z,10.32
2022-09-28T22:08:26.434Z,8.48
2022-09-28T22:11:05.731Z,7.10
2022-09-28T22:13:41.664Z,7.57
2022-09-28T22:16:09.603Z,12.07
2022-09-28T22:18:36.563Z,7.97
2022-09-28T22:21:11.500Z,7.93
2022-09-28T22:23:38.919Z,8.50
2022-09-28T22:26:12.946Z,12.70
2022-09-28T22:28:45.186Z,9.90
2022-09-28T22:31:11.996Z,8.32
2022-09-28T22:33:38.649Z,8.40
2022-09-28T22:36:05.556Z,9.75
2022-09-28T22:38:32.904Z,11.90
2022-09-28T22:40:59.565Z,8.02
2022-09-28T22:43:26.957Z,11.50
2022-09-28T22:46:11.608Z,11.00
2022-09-28T22:48:38.726Z,9.38
2022-09-28T22:51:06.868Z,10.48
2022-09-28T22:53:35.258Z,11.35
2022-09-28T22:56:05.247Z,7.63
2022-09-28T22:58:33.167Z,8.13
2022-09-28T23:01:12.505Z,10.18
2022-09-28T23:03:42.772Z,9.20
2022-09-28T23:06:11.015Z,10.65
2022-09-28T23:08:39.106Z,9.55
2022-09-28T23:11:06.470Z,9.02
2022-09-28T23:13:35.128Z,7.95
2022-09-28T23:16:06.482Z,11.02
2022-09-28T23:18:35.377Z,11.35
2022-09-28T23:21:07.255Z,10.98
2022-09-28T23:23:34.446Z,12.80
2022-09-28T23:26:09.317Z,10.38
2022-09-28T23:28:35.930Z,12.45
2022-09-28T23:31:20.836Z,9.88
2022-09-28T23:33:47.687Z,9.77
2022-09-28T23:36:14.391Z,11.52
2022-09-28T23:38:41.526Z,17.27
2022-09-28T23:41:08.561Z,13.38
2022-09-28T23:43:36.195Z,13.70
2022-09-28T23:46:04.231Z,14.93
2022-09-28T23:48:30.978Z,15.20
2022-09-28T23:50:57.610Z,19.83
2022-09-28T23:53:24.258Z,17.10
2022-09-28T23:55:50.992Z,18.63
2022-09-28T23:58:17.682Z,13.07
